sensor_id;sensor_type;location;lat;lon;timestamp;pressure;altitude;pressure_sealevel;temperature;humidity
3960;BME280;1994;48.640;8.894;2023-07-31T00:00:28;96243.63;;;15.79;82.23
3960;BME280;1994;48.640;8.894;2023-07-31T00:02:54;96238.38;;;15.79;82.14
3960;BME280;1994;48.640;8.894;2023-07-31T00:05:21;96245.72;;;15.57;82.94
3960;BME280;1994;48.640;8.894;2023-07-31T00:07:47;96241.03;;;15.54;83.48
3960;BME280;1994;48.640;8.894;2023-07-31T00:10:12;96241.00;;;15.44;84.52
3960;BME280;1994;48.640;8.894;2023-07-31T00:12:42;96244.94;;;15.46;84.61
3960;BME280;1994;48.640;8.894;2023-07-31T00:15:09;96239.97;;;15.40;84.87
3960;BME280;1994;48.640;8.894;2023-07-31T00:17:36;96250.94;;;15.42;84.81
3960;BME280;1994;48.640;8.894;2023-07-31T00:20:02;96257.72;;;15.48;84.38
3960;BME280;1994;48.640;8.894;2023-07-31T00:22:28;96255.38;;;15.46;84.56
3960;BME280;1994;48.640;8.894;2023-07-31T00:24:55;96254.59;;;15.36;85.15
3960;BME280;1994;48.640;8.894;2023-07-31T00:27:21;96246.72;;;15.31;85.25
3960;BME280;1994;48.640;8.894;2023-07-31T00:29:47;96254.56;;;15.31;85.61
3960;BME280;1994;48.640;8.894;2023-07-31T00:32:13;96255.09;;;15.33;85.41
3960;BME280;1994;48.640;8.894;2023-07-31T00:34:39;96260.59;;;15.36;85.36
3960;BME280;1994;48.640;8.894;2023-07-31T00:37:05;96260.31;;;15.33;85.34
3960;BME280;1994;48.640;8.894;2023-07-31T00:39:31;96252.44;;;15.28;85.67
3960;BME280;1994;48.640;8.894;2023-07-31T00:41:56;96256.38;;;15.30;85.83
3960;BME280;1994;48.640;8.894;2023-07-31T00:44:22;96246.44;;;15.32;85.63
3960;BME280;1994;48.640;8.894;2023-07-31T00:46:49;96244.66;;;15.33;85.44
3960;BME280;1994;48.640;8.894;2023-07-31T00:49:15;96241.78;;;15.34;85.27
3960;BME280;1994;48.640;8.894;2023-07-31T00:51:41;96251.41;;;15.24;85.45
3960;BME280;1994;48.640;8.894;2023-07-31T00:54:07;96246.72;;;15.21;85.78
3960;BME280;1994;48.640;8.894;2023-07-31T00:56:33;96243.31;;;15.20;85.59
3960;BME280;1994;48.640;8.894;2023-07-31T00:58:59;96244.63;;;15.23;85.36
3960;BME280;1994;48.640;8.894;2023-07-31T01:01:25;96239.91;;;15.25;85.11
3960;BME280;1994;48.640;8.894;2023-07-31T01:03:52;96248.78;;;15.24;85.38
3960;BME280;1994;48.640;8.894;2023-07-31T01:06:42;96243.06;;;15.27;85.23
3960;BME280;1994;48.640;8.894;2023-07-31T01:09:40;96239.44;;;15.33;84.96
3960;BME280;1994;48.640;8.894;2023-07-31T01:12:09;96232.84;;;15.15;85.44
3960;BME280;1994;48.640;8.894;2023-07-31T01:14:38;96232.06;;;15.25;84.89
3960;BME280;1994;48.640;8.894;2023-07-31T01:17:04;96231.56;;;15.28;84.96
3960;BME280;1994;48.640;8.894;2023-07-31T01:19:30;96221.66;;;15.30;84.44
3960;BME280;1994;48.640;8.894;2023-07-31T01:22:39;96225.09;;;15.35;84.32
3960;BME280;1994;48.640;8.894;2023-07-31T01:27:58;96225.88;;;15.46;83.96
3960;BME280;1994;48.640;8.894;2023-07-31T01:30:31;96219.88;;;15.50;83.87
3960;BME280;1994;48.640;8.894;2023-07-31T01:32:59;96223.25;;;15.51;83.94
3960;BME280;1994;48.640;8.894;2023-07-31T01:35:28;96223.78;;;15.48;83.74
3960;BME280;1994;48.640;8.894;2023-07-31T01:37:54;96222.50;;;15.45;84.15
3960;BME280;1994;48.640;8.894;2023-07-31T01:40:19;96219.63;;;15.47;84.01
3960;BME280;1994;48.640;8.894;2023-07-31T01:42:45;96222.22;;;15.42;83.64
3960;BME280;1994;48.640;8.894;2023-07-31T01:45:12;96205.25;;;15.44;84.15
3960;BME280;1994;48.640;8.894;2023-07-31T01:47:37;96214.41;;;15.42;84.28
3960;BME280;1994;48.640;8.894;2023-07-31T01:50:04;96217.53;;;15.39;84.08
3960;BME280;1994;48.640;8.894;2023-07-31T01:52:30;96214.41;;;15.37;84.32
3960;BME280;1994;48.640;8.894;2023-07-31T01:54:55;96220.38;;;15.37;84.25
3960;BME280;1994;48.640;8.894;2023-07-31T01:57:21;96213.84;;;15.40;84.41
3960;BME280;1994;48.640;8.894;2023-07-31T01:59:50;96216.22;;;15.36;84.63
3960;BME280;1994;48.640;8.894;2023-07-31T02:02:16;96216.47;;;15.35;84.63
3960;BME280;1994;48.640;8.894;2023-07-31T02:04:42;96202.34;;;15.31;84.66
3960;BME280;1994;48.640;8.894;2023-07-31T02:07:07;96200.78;;;15.15;85.06
3960;BME280;1994;48.640;8.894;2023-07-31T02:09:33;96194.47;;;14.91;85.79
3960;BME280;1994;48.640;8.894;2023-07-31T02:11:59;96187.16;;;14.78;86.56
3960;BME280;1994;48.640;8.894;2023-07-31T02:14:25;96190.25;;;14.75;86.56
3960;BME280;1994;48.640;8.894;2023-07-31T02:16:50;96193.41;;;14.77;86.98
3960;BME280;1994;48.640;8.894;2023-07-31T02:19:16;96180.31;;;14.57;87.65
3960;BME280;1994;48.640;8.894;2023-07-31T02:21:42;96178.19;;;14.54;87.98
3960;BME280;1994;48.640;8.894;2023-07-31T02:24:08;96178.72;;;14.51;88.29
3960;BME280;1994;48.640;8.894;2023-07-31T02:26:33;96185.03;;;14.60;88.02
3960;BME280;1994;48.640;8.894;2023-07-31T02:28:59;96180.81;;;14.54;87.85
3960;BME280;1994;48.640;8.894;2023-07-31T02:31:25;96176.59;;;14.43;88.68
3960;BME280;1994;48.640;8.894;2023-07-31T02:33:51;96174.00;;;14.48;88.61
3960;BME280;1994;48.640;8.894;2023-07-31T02:36:17;96177.16;;;14.50;88.50
3960;BME280;1994;48.640;8.894;2023-07-31T02:38:42;96171.41;;;14.48;88.44
3960;BME280;1994;48.640;8.894;2023-07-31T02:41:08;96175.03;;;14.42;88.52
3960;BME280;1994;48.640;8.894;2023-07-31T02:43:34;96168.81;;;14.48;88.36
3960;BME280;1994;48.640;8.894;2023-07-31T02:46:00;96159.72;;;14.60;87.89
3960;BME280;1994;48.640;8.894;2023-07-31T02:48:26;96167.81;;;14.64;87.96
3960;BME280;1994;48.640;8.894;2023-07-31T02:50:53;96160.53;;;14.66;88.06
3960;BME280;1994;48.640;8.894;2023-07-31T02:53:19;96157.94;;;14.71;87.99
3960;BME280;1994;48.640;8.894;2023-07-31T02:55:44;96153.25;;;14.78;87.37
3960;BME280;1994;48.640;8.894;2023-07-31T02:58:10;96156.91;;;14.77;86.98
3960;BME280;1994;48.640;8.894;2023-07-31T03:00:36;96155.84;;;14.78;86.95
3960;BME280;1994;48.640;8.894;2023-07-31T03:03:01;96154.31;;;14.82;86.87
3960;BME280;1994;48.640;8.894;2023-07-31T03:05:27;96159.53;;;14.82;86.47
3960;BME280;1994;48.640;8.894;2023-07-31T03:07:53;96157.44;;;14.84;86.43
3960;BME280;1994;48.640;8.894;2023-07-31T03:10:19;96157.69;;;14.87;86.43
3960;BME280;1994;48.640;8.894;2023-07-31T03:12:47;96158.19;;;14.89;86.24
3960;BME280;1994;48.640;8.894;2023-07-31T03:15:13;96155.34;;;14.91;85.88
3960;BME280;1994;48.640;8.894;2023-07-31T03:17:39;96164.19;;;14.85;86.12
3960;BME280;1994;48.640;8.894;2023-07-31T03:20:05;96162.66;;;14.84;86.21
3960;BME280;1994;48.640;8.894;2023-07-31T03:22:31;96154.31;;;14.87;85.80
3960;BME280;1994;48.640;8.894;2023-07-31T03:24:57;96147.53;;;14.91;85.08
3960;BME280;1994;48.640;8.894;2023-07-31T03:27:23;96147.78;;;14.74;85.84
3960;BME280;1994;48.640;8.894;2023-07-31T03:29:51;96157.94;;;14.81;85.59
3960;BME280;1994;48.640;8.894;2023-07-31T03:32:17;96156.38;;;14.85;85.67
3960;BME280;1994;48.640;8.894;2023-07-31T03:34:46;96154.31;;;14.82;85.49
3960;BME280;1994;48.640;8.894;2023-07-31T03:37:12;96160.03;;;14.79;85.67
3960;BME280;1994;48.640;8.894;2023-07-31T03:39:37;96169.16;;;14.86;85.48
3960;BME280;1994;48.640;8.894;2023-07-31T03:42:04;96163.16;;;14.91;85.49
3960;BME280;1994;48.640;8.894;2023-07-31T03:44:32;96161.88;;;14.93;85.61
3960;BME280;1994;48.640;8.894;2023-07-31T03:46:58;96162.91;;;14.97;85.09
3960;BME280;1994;48.640;8.894;2023-07-31T03:49:24;96161.59;;;14.90;84.95
3960;BME280;1994;48.640;8.894;2023-07-31T03:51:50;96162.66;;;14.84;85.40
3960;BME280;1994;48.640;8.894;2023-07-31T03:54:15;96161.59;;;14.80;85.69
3960;BME280;1994;48.640;8.894;2023-07-31T03:56:41;96153.25;;;14.78;85.77
3960;BME280;1994;48.640;8.894;2023-07-31T03:59:07;96155.34;;;14.86;85.42
3960;BME280;1994;48.640;8.894;2023-07-31T04:01:33;96154.81;;;14.89;85.33
3960;BME280;1994;48.640;8.894;2023-07-31T04:03:59;96157.16;;;14.80;85.86
3960;BME280;1994;48.640;8.894;2023-07-31T04:06:24;96149.59;;;14.79;86.12
3960;BME280;1994;48.640;8.894;2023-07-31T04:08:50;96155.31;;;14.81;86.16
3960;BME280;1994;48.640;8.894;2023-07-31T04:11:16;96152.47;;;14.87;85.83
3960;BME280;1994;48.640;8.894;2023-07-31T04:13:45;96152.72;;;14.91;86.10
3960;BME280;1994;48.640;8.894;2023-07-31T04:16:10;96141.78;;;14.84;86.13
3960;BME280;1994;48.640;8.894;2023-07-31T04:18:37;96147.00;;;14.94;85.73
3960;BME280;1994;48.640;8.894;2023-07-31T04:21:03;96136.84;;;14.92;85.89
3960;BME280;1994;48.640;8.894;2023-07-31T04:23:32;96143.88;;;15.07;85.12
3960;BME280;1994;48.640;8.894;2023-07-31T04:25:57;96141.78;;;15.14;84.84
3960;BME280;1994;48.640;8.894;2023-07-31T04:28:23;96140.22;;;15.13;85.17
3960;BME280;1994;48.640;8.894;2023-07-31T04:30:52;96146.00;;;15.15;85.27
3960;BME280;1994;48.640;8.894;2023-07-31T04:33:19;96151.97;;;15.20;85.12
3960;BME280;1994;48.640;8.894;2023-07-31T04:35:53;96152.78;;;15.21;85.06
3960;BME280;1994;48.640;8.894;2023-07-31T04:38:20;96147.00;;;15.24;84.73
3960;BME280;1994;48.640;8.894;2023-07-31T04:40:47;96146.50;;;15.27;84.68
3960;BME280;1994;48.640;8.894;2023-07-31T04:43:13;96151.72;;;15.22;85.18
3960;BME280;1994;48.640;8.894;2023-07-31T04:45:38;96139.19;;;15.29;84.59
3960;BME280;1994;48.640;8.894;2023-07-31T04:48:04;96142.34;;;15.31;84.42
3960;BME280;1994;48.640;8.894;2023-07-31T04:50:30;96148.56;;;15.25;85.11
3960;BME280;1994;48.640;8.894;2023-07-31T04:52:59;96147.03;;;15.34;84.74
3960;BME280;1994;48.640;8.894;2023-07-31T04:55:24;96141.31;;;15.37;85.27
3960;BME280;1994;48.640;8.894;2023-07-31T04:57:53;96142.06;;;15.37;84.84
3960;BME280;1994;48.640;8.894;2023-07-31T05:00:19;96138.16;;;15.45;84.64
3960;BME280;1994;48.640;8.894;2023-07-31T05:02:45;96142.88;;;15.48;84.22
3960;BME280;1994;48.640;8.894;2023-07-31T05:05:11;96141.31;;;15.47;84.39
3960;BME280;1994;48.640;8.894;2023-07-31T05:07:36;96142.88;;;15.53;84.22
3960;BME280;1994;48.640;8.894;2023-07-31T05:10:02;96145.97;;;15.60;83.44
3960;BME280;1994;48.640;8.894;2023-07-31T05:12:28;96151.19;;;15.60;83.78
3960;BME280;1994;48.640;8.894;2023-07-31T05:14:54;96148.03;;;15.68;83.62
3960;BME280;1994;48.640;8.894;2023-07-31T05:17:20;96135.53;;;15.70;83.32
3960;BME280;1994;48.640;8.894;2023-07-31T05:19:45;96139.13;;;15.79;83.05
3960;BME280;1994;48.640;8.894;2023-07-31T05:22:11;96144.34;;;15.89;83.01
3960;BME280;1994;48.640;8.894;2023-07-31T05:24:37;96144.88;;;15.96;82.59
3960;BME280;1994;48.640;8.894;2023-07-31T05:27:03;96149.50;;;16.14;81.88
3960;BME280;1994;48.640;8.894;2023-07-31T05:29:29;96156.28;;;16.15;81.64
3960;BME280;1994;48.640;8.894;2023-07-31T05:31:55;96150.00;;;16.16;81.48
3960;BME280;1994;48.640;8.894;2023-07-31T05:34:20;96162.22;;;16.30;81.76
3960;BME280;1994;48.640;8.894;2023-07-31T05:36:46;96151.50;;;16.37;81.04
3960;BME280;1994;48.640;8.894;2023-07-31T05:39:12;96150.69;;;16.46;80.64
3960;BME280;1994;48.640;8.894;2023-07-31T05:41:38;96155.19;;;16.31;80.34
3960;BME280;1994;48.640;8.894;2023-07-31T05:44:04;96151.00;;;16.30;80.55
3960;BME280;1994;48.640;8.894;2023-07-31T05:46:29;96150.22;;;16.39;79.80
3960;BME280;1994;48.640;8.894;2023-07-31T05:48:56;96157.22;;;16.44;79.88
3960;BME280;1994;48.640;8.894;2023-07-31T05:51:22;96157.78;;;16.31;80.34
3960;BME280;1994;48.640;8.894;2023-07-31T05:53:48;96155.16;;;16.36;79.97
3960;BME280;1994;48.640;8.894;2023-07-31T05:56:13;96147.03;;;16.47;80.43
3960;BME280;1994;48.640;8.894;2023-07-31T05:58:39;96144.13;;;16.49;80.56
3960;BME280;1994;48.640;8.894;2023-07-31T06:01:05;96140.53;;;16.40;81.33
3960;BME280;1994;48.640;8.894;2023-07-31T06:03:31;96143.09;;;16.50;81.55
3960;BME280;1994;48.640;8.894;2023-07-31T06:05:56;96142.63;;;16.28;81.31
3960;BME280;1994;48.640;8.894;2023-07-31T06:08:22;96137.94;;;16.40;81.66
3960;BME280;1994;48.640;8.894;2023-07-31T06:10:48;96137.31;;;16.53;81.53
3960;BME280;1994;48.640;8.894;2023-07-31T06:13:13;96134.63;;;16.68;81.22
3960;BME280;1994;48.640;8.894;2023-07-31T06:15:39;96138.75;;;16.79;80.64
3960;BME280;1994;48.640;8.894;2023-07-31T06:18:05;96129.34;;;16.78;80.10
3960;BME280;1994;48.640;8.894;2023-07-31T06:20:34;96132.50;;;16.75;80.68
3960;BME280;1994;48.640;8.894;2023-07-31T06:23:00;96130.31;;;16.87;79.17
3960;BME280;1994;48.640;8.894;2023-07-31T06:25:25;96133.47;;;16.89;79.33
3960;BME280;1994;48.640;8.894;2023-07-31T06:27:51;96142.81;;;17.00;79.10
3960;BME280;1994;48.640;8.894;2023-07-31T06:30:17;96141.13;;;17.14;78.30
3960;BME280;1994;48.640;8.894;2023-07-31T06:32:43;96131.25;;;17.34;77.37
3960;BME280;1994;48.640;8.894;2023-07-31T06:35:09;96129.41;;;17.40;77.11
3960;BME280;1994;48.640;8.894;2023-07-31T06:37:34;96130.03;;;17.27;76.40
3960;BME280;1994;48.640;8.894;2023-07-31T06:40:00;96132.59;;;17.32;76.00
3960;BME280;1994;48.640;8.894;2023-07-31T06:42:26;96134.38;;;17.41;75.48
3960;BME280;1994;48.640;8.894;2023-07-31T06:44:52;96132.22;;;17.48;75.09
3960;BME280;1994;48.640;8.894;2023-07-31T06:47:18;96142.91;;;17.52;74.42
3960;BME280;1994;48.640;8.894;2023-07-31T06:49:43;96140.25;;;17.57;74.63
3960;BME280;1994;48.640;8.894;2023-07-31T06:52:09;96138.84;;;17.69;74.38
3960;BME280;1994;48.640;8.894;2023-07-31T06:54:36;96144.56;;;17.71;72.23
3960;BME280;1994;48.640;8.894;2023-07-31T06:57:02;96144.75;;;17.80;72.32
3960;BME280;1994;48.640;8.894;2023-07-31T06:59:29;96144.53;;;18.00;71.89
3960;BME280;1994;48.640;8.894;2023-07-31T07:01:54;96147.78;;;17.92;71.57
3960;BME280;1994;48.640;8.894;2023-07-31T07:04:20;96138.75;;;17.79;72.19
3960;BME280;1994;48.640;8.894;2023-07-31T07:06:46;96146.81;;;17.83;71.70
3960;BME280;1994;48.640;8.894;2023-07-31T07:09:12;96140.41;;;17.94;71.66
3960;BME280;1994;48.640;8.894;2023-07-31T07:11:37;96137.78;;;17.94;71.78
3960;BME280;1994;48.640;8.894;2023-07-31T07:14:03;96152.44;;;17.95;71.39
3960;BME280;1994;48.640;8.894;2023-07-31T07:16:29;96146.94;;;18.20;70.56
3960;BME280;1994;48.640;8.894;2023-07-31T07:18:55;96133.25;;;18.23;69.96
3960;BME280;1994;48.640;8.894;2023-07-31T07:21:20;96130.16;;;18.21;70.65
3960;BME280;1994;48.640;8.894;2023-07-31T07:23:46;96132.03;;;18.39;69.68
3960;BME280;1994;48.640;8.894;2023-07-31T07:26:12;96122.28;;;18.44;69.50
3960;BME280;1994;48.640;8.894;2023-07-31T07:28:38;96128.81;;;18.47;68.94
3960;BME280;1994;48.640;8.894;2023-07-31T07:31:04;96130.31;;;18.29;69.17
3960;BME280;1994;48.640;8.894;2023-07-31T07:33:29;96128.59;;;18.20;68.61
3960;BME280;1994;48.640;8.894;2023-07-31T07:35:55;96117.84;;;18.40;69.20
3960;BME280;1994;48.640;8.894;2023-07-31T07:38:21;96121.34;;;18.54;69.28
3960;BME280;1994;48.640;8.894;2023-07-31T07:40:47;96122.56;;;18.43;69.21
3960;BME280;1994;48.640;8.894;2023-07-31T07:43:16;96130.66;;;18.65;69.19
3960;BME280;1994;48.640;8.894;2023-07-31T07:45:41;96126.78;;;18.39;68.22
3960;BME280;1994;48.640;8.894;2023-07-31T07:48:07;96129.22;;;18.54;68.50
3960;BME280;1994;48.640;8.894;2023-07-31T07:50:33;96128.34;;;18.40;67.68
3960;BME280;1994;48.640;8.894;2023-07-31T07:52:59;96124.78;;;18.31;68.00
3960;BME280;1994;48.640;8.894;2023-07-31T07:55:24;96108.50;;;18.34;68.31
3960;BME280;1994;48.640;8.894;2023-07-31T07:57:50;96117.31;;;18.43;67.53
3960;BME280;1994;48.640;8.894;2023-07-31T08:00:16;96108.78;;;18.51;68.15
3960;BME280;1994;48.640;8.894;2023-07-31T08:02:43;96104.97;;;18.62;67.58
3960;BME280;1994;48.640;8.894;2023-07-31T08:05:09;96105.84;;;18.76;67.44
3960;BME280;1994;48.640;8.894;2023-07-31T08:07:35;96106.03;;;18.61;66.49
3960;BME280;1994;48.640;8.894;2023-07-31T08:10:00;96104.00;;;18.58;66.82
3960;BME280;1994;48.640;8.894;2023-07-31T08:12:26;96090.00;;;18.99;66.70
3960;BME280;1994;48.640;8.894;2023-07-31T08:14:52;96099.75;;;19.12;65.91
3960;BME280;1994;48.640;8.894;2023-07-31T08:17:18;96100.81;;;19.30;65.24
3960;BME280;1994;48.640;8.894;2023-07-31T08:19:43;96093.34;;;19.37;65.47
3960;BME280;1994;48.640;8.894;2023-07-31T08:22:10;96091.53;;;19.51;64.29
3960;BME280;1994;48.640;8.894;2023-07-31T08:24:36;96093.25;;;19.42;64.82
3960;BME280;1994;48.640;8.894;2023-07-31T08:27:02;96094.22;;;19.32;65.48
3960;BME280;1994;48.640;8.894;2023-07-31T08:29:27;96095.34;;;19.58;65.29
3960;BME280;1994;48.640;8.894;2023-07-31T08:31:53;96100.91;;;19.84;63.66
3960;BME280;1994;48.640;8.894;2023-07-31T08:34:19;96093.69;;;19.89;63.79
3960;BME280;1994;48.640;8.894;2023-07-31T08:36:45;96103.13;;;20.04;62.46
3960;BME280;1994;48.640;8.894;2023-07-31T08:39:10;96087.75;;;20.38;62.59
3960;BME280;1994;48.640;8.894;2023-07-31T08:41:39;96089.19;;;20.44;60.78
3960;BME280;1994;48.640;8.894;2023-07-31T08:44:07;96082.44;;;20.87;58.91
3960;BME280;1994;48.640;8.894;2023-07-31T08:46:33;96080.91;;;20.72;60.19
3960;BME280;1994;48.640;8.894;2023-07-31T08:49:00;96092.81;;;20.83;58.72
3960;BME280;1994;48.640;8.894;2023-07-31T08:51:30;96093.59;;;21.06;58.79
3960;BME280;1994;48.640;8.894;2023-07-31T08:53:55;96083.38;;;21.35;57.14
3960;BME280;1994;48.640;8.894;2023-07-31T08:56:23;96085.31;;;21.43;57.04
3960;BME280;1994;48.640;8.894;2023-07-31T08:58:49;96097.44;;;21.00;58.25
3960;BME280;1994;48.640;8.894;2023-07-31T09:01:16;96072.66;;;21.01;58.64
3960;BME280;1994;48.640;8.894;2023-07-31T09:03:42;96074.69;;;21.26;58.04
3960;BME280;1994;48.640;8.894;2023-07-31T09:06:10;96066.91;;;21.21;56.95
3960;BME280;1994;48.640;8.894;2023-07-31T09:08:37;96053.69;;;21.43;57.31
3960;BME280;1994;48.640;8.894;2023-07-31T09:11:06;96051.81;;;20.91;57.86
3960;BME280;1994;48.640;8.894;2023-07-31T09:13:32;96075.03;;;20.89;58.64
3960;BME280;1994;48.640;8.894;2023-07-31T09:15:58;96055.03;;;20.66;58.84
3960;BME280;1994;48.640;8.894;2023-07-31T09:18:24;96063.31;;;20.59;59.02
3960;BME280;1994;48.640;8.894;2023-07-31T09:21:04;96059.59;;;20.60;59.42
3960;BME280;1994;48.640;8.894;2023-07-31T09:23:44;96067.31;;;20.57;59.90
3960;BME280;1994;48.640;8.894;2023-07-31T09:26:11;96070.66;;;20.49;59.72
3960;BME280;1994;48.640;8.894;2023-07-31T09:28:37;96068.28;;;20.61;59.33
3960;BME280;1994;48.640;8.894;2023-07-31T09:31:03;96068.72;;;20.41;60.20
3960;BME280;1994;48.640;8.894;2023-07-31T09:33:29;96063.84;;;20.48;60.50
3960;BME280;1994;48.640;8.894;2023-07-31T09:35:59;96055.13;;;20.61;60.74
3960;BME280;1994;48.640;8.894;2023-07-31T09:38:26;96056.00;;;20.70;60.45
3960;BME280;1994;48.640;8.894;2023-07-31T09:40:52;96051.06;;;20.77;58.25
3960;BME280;1994;48.640;8.894;2023-07-31T09:43:21;96031.41;;;21.18;57.22
3960;BME280;1994;48.640;8.894;2023-07-31T09:45:48;96028.09;;;21.13;58.54
3960;BME280;1994;48.640;8.894;2023-07-31T09:48:19;96024.97;;;21.33;58.21
3960;BME280;1994;48.640;8.894;2023-07-31T09:50:47;96018.72;;;21.29;57.30
3960;BME280;1994;48.640;8.894;2023-07-31T09:53:14;96017.84;;;21.33;57.46
3960;BME280;1994;48.640;8.894;2023-07-31T09:55:41;96019.56;;;21.38;56.87
3960;BME280;1994;48.640;8.894;2023-07-31T09:58:12;96011.44;;;22.04;57.00
3960;BME280;1994;48.640;8.894;2023-07-31T10:00:39;96026.09;;;22.44;53.65
3960;BME280;1994;48.640;8.894;2023-07-31T10:03:09;96017.41;;;22.52;53.41
3960;BME280;1994;48.640;8.894;2023-07-31T10:06:02;95998.09;;;22.26;55.19
3960;BME280;1994;48.640;8.894;2023-07-31T10:08:30;96004.03;;;22.23;53.81
3960;BME280;1994;48.640;8.894;2023-07-31T10:11:01;96013.63;;;22.36;52.78
3960;BME280;1994;48.640;8.894;2023-07-31T10:13:28;95999.84;;;22.39;53.12
3960;BME280;1994;48.640;8.894;2023-07-31T10:15:59;95997.66;;;22.41;53.59
3960;BME280;1994;48.640;8.894;2023-07-31T10:18:27;95988.38;;;22.52;53.20
3960;BME280;1994;48.640;8.894;2023-07-31T10:20:54;95989.75;;;22.41;53.01
3960;BME280;1994;48.640;8.894;2023-07-31T10:23:22;95997.69;;;22.58;52.01
3960;BME280;1994;48.640;8.894;2023-07-31T10:25:48;95989.88;;;22.78;53.14
3960;BME280;1994;48.640;8.894;2023-07-31T10:28:15;95986.19;;;22.62;51.93
3960;BME280;1994;48.640;8.894;2023-07-31T10:30:41;95987.91;;;22.67;52.54
3960;BME280;1994;48.640;8.894;2023-07-31T10:33:08;95987.41;;;22.73;52.38
3960;BME280;1994;48.640;8.894;2023-07-31T10:35:34;95988.81;;;22.88;52.61
3960;BME280;1994;48.640;8.894;2023-07-31T10:38:20;95989.88;;;23.04;52.34
3960;BME280;1994;48.640;8.894;2023-07-31T10:40:45;95971.69;;;22.94;51.81
3960;BME280;1994;48.640;8.894;2023-07-31T10:43:24;95973.59;;;23.39;50.96
3960;BME280;1994;48.640;8.894;2023-07-31T10:45:53;95972.09;;;23.21;50.99
3960;BME280;1994;48.640;8.894;2023-07-31T10:48:19;95965.34;;;22.86;52.70
3960;BME280;1994;48.640;8.894;2023-07-31T10:50:54;95974.59;;;23.64;51.66
3960;BME280;1994;48.640;8.894;2023-07-31T10:53:30;95973.59;;;23.39;50.41
3960;BME280;1994;48.640;8.894;2023-07-31T10:56:01;95962.81;;;22.98;52.27
3960;BME280;1994;48.640;8.894;2023-07-31T10:58:28;95963.00;;;22.85;52.12
3960;BME280;1994;48.640;8.894;2023-07-31T11:00:59;95955.22;;;22.88;51.89
3960;BME280;1994;48.640;8.894;2023-07-31T11:03:42;95963.28;;;22.92;52.73
3960;BME280;1994;48.640;8.894;2023-07-31T11:06:08;95957.13;;;22.71;51.93
3960;BME280;1994;48.640;8.894;2023-07-31T11:08:45;95960.84;;;22.70;53.39
3960;BME280;1994;48.640;8.894;2023-07-31T11:11:17;95956.22;;;22.67;53.14
3960;BME280;1994;48.640;8.894;2023-07-31T11:13:47;95958.69;;;22.72;53.31
3960;BME280;1994;48.640;8.894;2023-07-31T11:16:15;95953.09;;;22.65;53.57
3960;BME280;1994;48.640;8.894;2023-07-31T11:18:43;95963.34;;;22.58;52.48
3960;BME280;1994;48.640;8.894;2023-07-31T11:21:14;95968.63;;;22.75;53.39
3960;BME280;1994;48.640;8.894;2023-07-31T11:23:40;95964.00;;;22.55;53.13
3960;BME280;1994;48.640;8.894;2023-07-31T11:26:07;95958.84;;;22.41;54.26
3960;BME280;1994;48.640;8.894;2023-07-31T11:28:34;95960.59;;;22.46;54.47
3960;BME280;1994;48.640;8.894;2023-07-31T11:31:02;95965.69;;;22.17;54.72
3960;BME280;1994;48.640;8.894;2023-07-31T11:33:28;95957.44;;;22.10;54.72
3960;BME280;1994;48.640;8.894;2023-07-31T11:35:53;95959.59;;;22.08;55.86
3960;BME280;1994;48.640;8.894;2023-07-31T11:38:27;95970.47;;;22.15;55.40
3960;BME280;1994;48.640;8.894;2023-07-31T11:40:56;95968.63;;;22.24;55.71
3960;BME280;1994;48.640;8.894;2023-07-31T11:43:23;95960.56;;;22.20;54.59
3960;BME280;1994;48.640;8.894;2023-07-31T11:45:55;95966.75;;;22.33;54.41
3960;BME280;1994;48.640;8.894;2023-07-31T11:48:32;95952.16;;;22.27;54.89
3960;BME280;1994;48.640;8.894;2023-07-31T11:51:04;95939.28;;;22.17;54.75
3960;BME280;1994;48.640;8.894;2023-07-31T11:53:43;95935.72;;;22.13;55.84
3960;BME280;1994;48.640;8.894;2023-07-31T11:56:13;95936.03;;;22.03;56.21
3960;BME280;1994;48.640;8.894;2023-07-31T11:58:40;95925.75;;;21.93;56.08
3960;BME280;1994;48.640;8.894;2023-07-31T12:01:07;95921.59;;;22.00;55.07
3960;BME280;1994;48.640;8.894;2023-07-31T12:03:33;95919.53;;;21.89;54.95
3960;BME280;1994;48.640;8.894;2023-07-31T12:06:00;95918.94;;;22.26;55.90
3960;BME280;1994;48.640;8.894;2023-07-31T12:08:26;95924.56;;;22.50;54.48
3960;BME280;1994;48.640;8.894;2023-07-31T12:10:53;95924.00;;;22.82;54.48
3960;BME280;1994;48.640;8.894;2023-07-31T12:13:26;95924.75;;;22.99;54.03
3960;BME280;1994;48.640;8.894;2023-07-31T12:15:57;95913.34;;;23.16;53.64
3960;BME280;1994;48.640;8.894;2023-07-31T12:18:26;95912.09;;;23.22;53.65
3960;BME280;1994;48.640;8.894;2023-07-31T12:21:00;95901.69;;;23.17;53.71
3960;BME280;1994;48.640;8.894;2023-07-31T12:23:29;95907.47;;;23.02;54.67
3960;BME280;1994;48.640;8.894;2023-07-31T12:26:06;95909.78;;;23.12;54.60
3960;BME280;1994;48.640;8.894;2023-07-31T12:28:41;95909.16;;;23.15;54.99
3960;BME280;1994;48.640;8.894;2023-07-31T12:31:14;95902.25;;;23.31;52.53
3960;BME280;1994;48.640;8.894;2023-07-31T12:33:42;95893.41;;;23.56;53.38
3960;BME280;1994;48.640;8.894;2023-07-31T12:36:14;95900.56;;;24.05;51.51
3960;BME280;1994;48.640;8.894;2023-07-31T12:38:41;95894.34;;;24.42;51.06
3960;BME280;1994;48.640;8.894;2023-07-31T12:41:07;95888.53;;;25.05;51.46
3960;BME280;1994;48.640;8.894;2023-07-31T12:43:39;95877.22;;;24.72;50.16
3960;BME280;1994;48.640;8.894;2023-07-31T12:46:05;95873.03;;;24.71;49.10
3960;BME280;1994;48.640;8.894;2023-07-31T12:48:34;95877.94;;;24.93;48.28
3960;BME280;1994;48.640;8.894;2023-07-31T12:51:00;95862.25;;;24.76;48.19
3960;BME280;1994;48.640;8.894;2023-07-31T12:53:25;95860.38;;;24.44;50.16
3960;BME280;1994;48.640;8.894;2023-07-31T12:55:51;95851.78;;;24.47;50.10
3960;BME280;1994;48.640;8.894;2023-07-31T12:58:17;95839.06;;;24.40;50.71
3960;BME280;1994;48.640;8.894;2023-07-31T13:00:43;95843.88;;;24.26;51.13
3960;BME280;1994;48.640;8.894;2023-07-31T13:03:08;95843.22;;;23.97;51.55
3960;BME280;1994;48.640;8.894;2023-07-31T13:05:34;95850.19;;;24.01;51.64
3960;BME280;1994;48.640;8.894;2023-07-31T13:08:00;95840.13;;;24.27;51.63
3960;BME280;1994;48.640;8.894;2023-07-31T13:10:27;95838.78;;;24.54;51.71
3960;BME280;1994;48.640;8.894;2023-07-31T13:12:54;95832.88;;;24.81;50.83
3960;BME280;1994;48.640;8.894;2023-07-31T13:15:20;95837.44;;;24.92;50.53
3960;BME280;1994;48.640;8.894;2023-07-31T13:17:46;95831.81;;;25.06;51.08
3960;BME280;1994;48.640;8.894;2023-07-31T13:20:12;95833.88;;;25.12;49.85
3960;BME280;1994;48.640;8.894;2023-07-31T13:22:38;95834.66;;;25.13;50.17
3960;BME280;1994;48.640;8.894;2023-07-31T13:25:04;95826.69;;;25.49;49.68